Time;durP1;ratioP1;P1;durP2;ratioP2;P2;SDS_P1;SDS_P2;PMS_P1;PMS_P2;Temp;Humidity;BMP_temperature;BMP_pressure;BME280_temperature;BME280_humidity;BME280_pressure;Samples;Min_cycle;Max_cycle;Signal;HPM_P1;HPM_P2
2023/06/29 00:01:47;;;;;;;6.43;3.27;;;;;;;17.55;68.82;150467.56;4929321;28;20724;-61
2023/06/29 00:04:21;;;;;;;4.77;3.23;;;;;;;17.53;69.32;150463.84;4928833;28;20302;-61
2023/06/29 00:06:49;;;;;;;3.77;2.93;;;;;;;17.50;69.34;150455.06;4930545;28;20573;-62
2023/06/29 00:09:16;;;;;;;6.23;3.20;;;;;;;17.51;69.43;150457.56;4923414;28;20633;-62
2023/06/29 00:11:43;;;;;;;6.33;3.00;;;;;;;17.46;69.41;150446.31;4928701;28;20257;-62
2023/06/29 00:14:09;;;;;;;7.30;3.23;;;;;;;17.47;69.28;150448.81;4929147;28;20293;-62
2023/06/29 00:16:36;;;;;;;3.27;2.97;;;;;;;17.48;69.24;150451.34;4925584;28;21380;-62
2023/06/29 00:19:03;;;;;;;4.73;3.10;;;;;;;17.43;69.69;150437.59;4934026;28;20302;-62
2023/06/29 00:21:29;;;;;;;4.93;3.30;;;;;;;17.40;69.22;150431.31;4928752;28;20318;-62
2023/06/29 00:24:02;;;;;;;3.80;2.63;;;;;;;17.44;68.93;150441.31;4934861;28;20582;-62
2023/06/29 00:26:30;;;;;;;4.63;3.20;;;;;;;17.39;69.83;150428.81;4930775;28;20323;-62
2023/06/29 00:29:00;;;;;;;5.83;3.27;;;;;;;17.33;69.92;150413.81;4934994;28;20231;-62
2023/06/29 00:31:27;;;;;;;3.70;2.90;;;;;;;17.27;70.14;150400.06;4931126;29;20309;-62
2023/06/29 00:34:19;;;;;;;7.20;3.30;;;;;;;17.23;70.30;150391.28;4931384;28;20444;-62
2023/06/29 00:36:46;;;;;;;10.83;3.13;;;;;;;17.20;70.30;150382.56;4949153;28;20234;-62
2023/06/29 00:39:13;;;;;;;6.03;3.47;;;;;;;17.18;70.78;150378.78;4932614;28;20693;-62
2023/06/29 00:41:40;;;;;;;3.40;2.87;;;;;;;17.21;70.33;150385.06;4935238;29;20238;-62
2023/06/29 00:44:09;;;;;;;4.73;3.03;;;;;;;17.22;69.98;150388.78;4931763;29;20246;-62
2023/06/29 00:46:35;;;;;;;4.67;3.33;;;;;;;17.18;70.60;150377.56;4932103;28;20278;-62
2023/06/29 00:49:02;;;;;;;4.37;2.87;;;;;;;17.16;71.33;150373.78;4930993;29;20227;-61
2023/06/29 00:51:31;;;;;;;3.93;2.83;;;;;;;17.15;71.15;150370.06;4933354;28;20239;-61
2023/06/29 00:54:00;;;;;;;5.03;3.10;;;;;;;17.11;70.82;150362.53;4935595;28;20244;-61
2023/06/29 00:56:31;;;;;;;3.60;3.17;;;;;;;17.14;70.77;150367.56;4930053;28;20250;-62
2023/06/29 00:59:00;;;;;;;6.03;3.17;;;;;;;17.19;70.12;150381.28;4931388;29;20253;-62
2023/06/29 01:01:27;;;;;;;5.30;3.30;;;;;;;17.25;70.21;150396.28;4933108;28;20235;-62
2023/06/29 01:04:00;;;;;;;3.10;2.77;;;;;;;17.20;70.47;150382.56;4931630;29;20242;-62
2023/06/29 01:06:31;;;;;;;6.03;3.47;;;;;;;17.17;70.69;150376.28;4931606;28;20230;-62
2023/06/29 01:09:04;;;;;;;5.70;3.37;;;;;;;17.18;71.38;150377.56;4934544;28;20717;-62
2023/06/29 01:11:33;;;;;;;5.00;3.00;;;;;;;17.15;70.74;150370.06;4934055;28;20230;-62
2023/06/29 01:14:05;;;;;;;6.10;3.40;;;;;;;17.09;70.88;150357.53;4932240;29;20255;-62
2023/06/29 01:16:33;;;;;;;4.77;3.10;;;;;;;17.08;71.42;150353.78;4934507;28;20226;-62
2023/06/29 01:19:01;;;;;;;7.30;3.57;;;;;;;17.05;71.59;150347.53;4933406;28;20226;-62
2023/06/29 01:21:30;;;;;;;5.03;3.10;;;;;;;17.05;71.32;150346.25;4933455;28;20474;-62
2023/06/29 01:24:04;;;;;;;5.93;3.50;;;;;;;17.04;71.58;150343.75;4932092;29;20234;-62
2023/06/29 01:26:32;;;;;;;4.10;3.07;;;;;;;17.00;72.05;150335.03;4946118;28;20713;-62
2023/06/29 01:29:00;;;;;;;4.70;3.63;;;;;;;16.94;71.73;150321.25;4931726;29;20297;-62
2023/06/29 01:31:27;;;;;;;6.67;3.40;;;;;;;16.94;72.32;150319.97;4932656;28;20250;-62
2023/06/29 01:33:55;;;;;;;7.87;3.37;;;;;;;16.87;72.59;150303.75;4933203;29;20694;-62
2023/06/29 01:36:29;;;;;;;5.10;3.17;;;;;;;16.85;72.92;150297.47;4939324;29;20716;-62
2023/06/29 01:39:03;;;;;;;4.50;3.30;;;;;;;16.80;72.89;150286.25;4935891;28;20248;-62
2023/06/29 01:41:34;;;;;;;6.70;3.50;;;;;;;16.78;73.13;150281.25;4933918;28;20245;-62
2023/06/29 01:44:06;;;;;;;6.17;3.57;;;;;;;16.79;73.11;150283.75;4941057;29;20237;-62
2023/06/29 01:46:34;;;;;;;4.77;3.40;;;;;;;16.81;73.28;150288.75;4929942;28;21952;-62
2023/06/29 01:49:01;;;;;;;4.73;3.17;;;;;;;16.80;72.83;150286.25;4942748;28;20248;-62
2023/06/29 01:51:28;;;;;;;9.57;3.83;;;;;;;16.80;73.36;150287.47;4933786;29;20243;-62
2023/06/29 01:54:02;;;;;;;5.67;3.53;;;;;;;16.77;73.72;150279.97;4936740;29;20233;-62
2023/06/29 01:56:29;;;;;;;4.20;3.77;;;;;;;16.72;73.65;150267.47;4932855;29;20597;-62
2023/06/29 01:59:04;;;;;;;6.80;3.47;;;;;;;16.70;73.46;150261.22;4950413;28;20244;-62
2023/06/29 02:01:31;;;;;;;4.63;3.00;;;;;;;16.67;73.17;150256.22;4942619;28;20230;-62
2023/06/29 02:04:00;;;;;;;4.43;3.60;;;;;;;16.70;73.40;150262.47;4935192;29;20722;-62
2023/06/29 02:06:27;;;;;;;5.77;3.60;;;;;;;16.76;73.23;150276.22;4943184;28;20612;-62
2023/06/29 02:08:54;;;;;;;6.87;3.40;;;;;;;16.87;72.92;150302.47;4937836;29;20237;-62
2023/06/29 02:11:20;;;;;;;5.27;3.20;;;;;;;16.87;72.08;150302.47;4937143;28;20320;-62
2023/06/29 02:13:47;;;;;;;4.67;3.07;;;;;;;16.88;72.25;150304.97;4935195;29;20316;-62
2023/06/29 02:16:15;;;;;;;4.73;3.50;;;;;;;16.83;71.96;150293.75;4932451;28;20314;-62
2023/06/29 02:18:43;;;;;;;6.37;3.00;;;;;;;16.79;72.50;150283.75;4937805;28;20233;-62
2023/06/29 02:21:10;;;;;;;6.50;3.27;;;;;;;16.79;72.60;150284.97;4934448;29;20234;-62
2023/06/29 02:23:38;;;;;;;5.37;2.90;;;;;;;16.81;72.18;150288.75;4930930;29;20238;-62
2023/06/29 02:26:05;;;;;;;4.30;3.23;;;;;;;16.84;71.97;150296.25;4935033;28;20239;-62
2023/06/29 02:28:36;;;;;;;7.67;3.03;;;;;;;16.89;71.80;150308.75;4933826;28;20238;-62
2023/06/29 02:31:02;;;;;;;5.40;3.07;;;;;;;16.86;71.87;150301.25;4936251;29;20242;-62
2023/06/29 02:33:31;;;;;;;5.27;2.83;;;;;;;16.82;71.93;150291.25;4933045;28;21072;-62
2023/06/29 02:35:58;;;;;;;5.23;3.03;;;;;;;16.77;72.40;150279.97;4934708;29;20314;-62
2023/06/29 02:38:25;;;;;;;7.63;2.93;;;;;;;16.77;72.14;150278.75;4933345;28;20232;-62
2023/06/29 02:40:52;;;;;;;5.80;3.33;;;;;;;16.73;72.85;150269.97;4938215;29;20256;-62
2023/06/29 02:43:18;;;;;;;5.77;3.60;;;;;;;16.70;72.85;150261.22;4934316;28;20233;-62
2023/06/29 02:45:45;;;;;;;7.57;3.03;;;;;;;16.61;73.69;150239.94;4937581;28;20303;-62
2023/06/29 02:48:12;;;;;;;6.50;3.10;;;;;;;16.56;73.94;150227.44;4936575;28;20267;-62
2023/06/29 02:50:41;;;;;;;4.23;3.00;;;;;;;16.51;74.47;150216.22;4931317;29;20248;-62
2023/06/29 02:53:07;;;;;;;3.80;3.00;;;;;;;16.51;73.71;150217.44;4936806;28;20237;-62
2023/06/29 02:55:34;;;;;;;6.67;2.87;;;;;;;16.58;74.20;150232.44;4932385;28;20307;-62
2023/06/29 02:58:00;;;;;;;5.57;3.13;;;;;;;16.53;74.53;150221.22;4935762;29;20231;-62
2023/06/29 03:00:27;;;;;;;3.63;3.00;;;;;;;16.52;74.55;150219.94;4931543;28;20225;-62
2023/06/29 03:02:54;;;;;;;5.67;2.93;;;;;;;16.55;74.23;150224.94;4933313;29;20316;-62
2023/06/29 03:05:21;;;;;;;3.30;2.93;;;;;;;16.51;73.77;150216.22;4932266;28;20232;-62
2023/06/29 03:07:49;;;;;;;6.50;3.03;;;;;;;16.53;73.70;150221.22;4934961;29;20240;-62
2023/06/29 03:10:15;;;;;;;5.60;3.00;;;;;;;16.54;73.71;150223.72;4932473;29;20249;-62
2023/06/29 03:12:42;;;;;;;4.30;2.90;;;;;;;16.56;73.70;150228.72;4936761;28;20296;-62
2023/06/29 03:15:09;;;;;;;4.67;2.83;;;;;;;16.57;73.15;150229.94;4937731;28;20711;-62
2023/06/29 03:17:35;;;;;;;3.80;2.80;;;;;;;16.61;72.73;150241.22;4937072;29;20235;-62
2023/06/29 03:20:02;;;;;;;4.97;3.07;;;;;;;16.65;73.14;150249.97;4934574;29;20233;-62
2023/06/29 03:22:29;;;;;;;4.80;2.73;;;;;;;16.68;72.97;150258.72;4932942;28;20241;-62
2023/06/29 03:24:57;;;;;;;5.53;3.30;;;;;;;16.70;73.09;150261.22;4943472;29;20235;-62
2023/06/29 03:27:23;;;;;;;6.37;2.90;;;;;;;16.76;72.79;150276.22;4932299;28;20297;-62
2023/06/29 03:29:52;;;;;;;3.87;2.90;;;;;;;16.78;72.43;150282.47;4938900;28;20295;-62
2023/06/29 03:32:18;;;;;;;4.20;2.77;;;;;;;16.86;72.00;150301.25;5155141;23;20684;-62
2023/06/29 03:34:45;;;;;;;3.87;3.23;;;;;;;16.95;71.03;150323.75;4951537;28;20230;-62
2023/06/29 03:37:11;;;;;;;3.10;2.63;;;;;;;17.04;71.25;150345.03;4957349;28;20291;-62
2023/06/29 03:39:38;;;;;;;5.07;3.17;;;;;;;17.08;70.54;150355.03;4954689;28;20278;-62
2023/06/29 03:42:06;;;;;;;5.17;2.60;;;;;;;17.11;71.30;150361.28;4956912;28;20229;-62
2023/06/29 03:44:34;;;;;;;3.23;2.83;;;;;;;17.08;72.41;150355.03;4951465;28;20702;-62
2023/06/29 03:47:00;;;;;;;4.50;2.50;;;;;;;17.09;72.18;150356.28;4957604;28;20240;-62
2023/06/29 03:49:27;;;;;;;3.53;2.70;;;;;;;17.09;72.88;150356.28;4953988;28;20240;-62
2023/06/29 03:51:53;;;;;;;6.30;2.80;;;;;;;17.15;73.00;150371.28;4954621;28;20242;-62
2023/06/29 03:54:20;;;;;;;3.47;2.93;;;;;;;17.08;73.60;150353.78;4951695;28;21034;-62
2023/06/29 03:56:46;;;;;;;4.27;3.00;;;;;;;17.07;74.12;150352.53;4954415;28;20232;-62
2023/06/29 03:59:14;;;;;;;7.10;3.20;;;;;;;17.04;74.52;150345.03;4951889;28;20334;-62
2023/06/29 04:01:41;;;;;;;3.60;3.13;;;;;;;17.04;74.87;150345.03;4954161;28;20240;-62
2023/06/29 04:04:07;;;;;;;7.60;3.37;;;;;;;17.02;75.00;150340.03;4956094;28;20248;-62
2023/06/29 04:06:34;;;;;;;6.73;3.20;;;;;;;16.99;75.53;150331.25;4951414;28;20249;-62
2023/06/29 04:09:00;;;;;;;9.97;2.67;;;;;;;16.94;76.75;150319.97;4955500;28;20241;-62
2023/06/29 04:11:27;;;;;;;3.97;3.00;;;;;;;16.89;77.32;150307.47;4953711;28;20277;-62
2023/06/29 04:13:57;;;;;;;4.53;3.03;;;;;;;16.88;78.21;150306.25;4956426;28;20229;-62
2023/06/29 04:16:25;;;;;;;7.43;3.20;;;;;;;16.87;78.36;150303.75;4952036;28;20285;-62
2023/06/29 04:18:51;;;;;;;4.60;2.93;;;;;;;16.83;78.10;150294.97;4956221;28;20248;-62
2023/06/29 04:21:18;;;;;;;4.30;3.13;;;;;;;16.85;78.35;150297.47;4953452;28;20238;-62
2023/06/29 04:23:45;;;;;;;5.77;2.87;;;;;;;16.85;77.99;150298.75;4954389;28;20287;-62
2023/06/29 04:26:13;;;;;;;4.20;2.93;;;;;;;16.90;77.73;150309.97;4955848;28;20710;-62
2023/06/29 04:28:44;;;;;;;5.33;3.00;;;;;;;16.95;78.20;150323.75;4953250;28;20261;-62
2023/06/29 04:31:11;;;;;;;3.33;3.03;;;;;;;17.05;78.98;150347.53;4954400;28;20235;-62
2023/06/29 04:33:39;;;;;;;4.90;3.10;;;;;;;17.15;78.89;150371.28;4953165;28;20251;-62
2023/06/29 04:36:05;;;;;;;4.10;3.03;;;;;;;17.27;78.66;150401.28;4962434;28;20679;-62
2023/06/29 04:38:32;;;;;;;4.97;3.07;;;;;;;17.34;78.93;150417.56;4952895;28;21793;-62
2023/06/29 04:41:03;;;;;;;4.23;3.07;;;;;;;17.45;78.52;150442.59;4954613;28;20222;-62
2023/06/29 04:43:30;;;;;;;3.57;2.93;;;;;;;17.49;78.82;150453.84;4955804;28;20239;-62
2023/06/29 04:45:56;;;;;;;5.47;2.90;;;;;;;17.59;77.86;150476.34;4956819;28;20221;-62
2023/06/29 04:48:28;;;;;;;5.57;3.03;;;;;;;17.65;78.13;150492.59;4952547;28;20283;-62
2023/06/29 04:51:02;;;;;;;6.20;3.00;;;;;;;17.71;77.96;150507.59;4954913;28;20238;-62
2023/06/29 04:53:29;;;;;;;4.33;3.00;;;;;;;17.78;78.19;150522.63;4951240;28;20223;-62
2023/06/29 04:55:55;;;;;;;3.20;2.90;;;;;;;17.81;78.29;150530.13;4955765;28;20238;-62
2023/06/29 04:58:22;;;;;;;5.43;3.07;;;;;;;17.89;78.44;150548.91;4952866;28;20292;-62
2023/06/29 05:00:48;;;;;;;4.20;3.10;;;;;;;17.96;76.85;150566.44;4957188;28;20301;-62
2023/06/29 05:03:15;;;;;;;4.10;3.30;;;;;;;18.04;76.40;150586.47;4952201;28;20288;-62
2023/06/29 05:05:42;;;;;;;5.50;2.53;;;;;;;18.11;75.32;150603.97;4954468;28;20586;-62
2023/06/29 05:08:10;;;;;;;5.20;3.03;;;;;;;18.20;75.05;150624.00;4953832;28;20235;-62
2023/06/29 05:10:36;;;;;;;4.23;3.03;;;;;;;18.35;74.38;150660.31;4953101;28;20241;-62
2023/06/29 05:13:03;;;;;;;4.53;2.97;;;;;;;18.49;74.31;150694.09;4954103;28;20228;-62
2023/06/29 05:15:29;;;;;;;4.10;2.50;;;;;;;18.62;73.19;150726.63;4953013;28;20225;-62
2023/06/29 05:17:56;;;;;;;5.03;3.10;;;;;;;18.87;74.35;150787.94;4953575;28;20224;-62
2023/06/29 05:20:22;;;;;;;4.93;2.43;;;;;;;18.99;72.97;150815.53;4950948;28;20287;-62
2023/06/29 05:22:49;;;;;;;3.43;2.80;;;;;;;19.22;72.46;150870.63;4954659;28;20300;-62
2023/06/29 05:25:17;;;;;;;3.60;2.70;;;;;;;19.38;71.97;150909.44;4954288;28;20301;-62
2023/06/29 05:27:43;;;;;;;3.43;2.87;;;;;;;19.64;73.17;150973.28;4959313;28;20240;-62
2023/06/29 05:30:11;;;;;;;5.97;3.03;;;;;;;19.77;74.96;151004.63;4958248;28;20254;-63
2023/06/29 05:32:38;;;;;;;7.43;3.17;;;;;;;19.94;74.67;151045.97;4956531;28;20247;-63
2023/06/29 05:35:05;;;;;;;6.33;2.87;;;;;;;20.11;73.33;151086.06;4958966;28;20227;-63
2023/06/29 05:37:32;;;;;;;3.27;2.70;;;;;;;20.34;72.00;151142.41;4955997;28;20219;-63
2023/06/29 05:39:59;;;;;;;5.40;2.50;;;;;;;20.53;70.41;151188.81;4958709;28;20800;-63
2023/06/29 05:42:27;;;;;;;4.37;2.40;;;;;;;20.75;68.88;151241.41;4955593;28;20245;-63
2023/06/29 05:44:55;;;;;;;4.17;2.47;;;;;;;21.09;69.51;151324.16;4955811;28;20228;-63
2023/06/29 05:47:21;;;;;;;3.07;2.27;;;;;;;21.35;69.18;151388.06;4954258;28;20229;-63
2023/06/29 05:49:48;;;;;;;4.83;2.73;;;;;;;21.55;67.32;151434.50;4957445;28;20240;-63
2023/06/29 05:52:14;;;;;;;5.00;2.63;;;;;;;21.75;64.26;151484.66;4953141;28;20235;-63
2023/06/29 05:54:41;;;;;;;3.80;2.83;;;;;;;21.77;62.35;151488.44;4957490;28;20237;-63
2023/06/29 05:57:08;;;;;;;3.87;2.73;;;;;;;21.74;62.12;151480.91;4958879;28;20245;-63
2023/06/29 05:59:36;;;;;;;7.50;3.70;;;;;;;21.77;61.70;151489.66;4957150;28;20576;-63
2023/06/29 06:02:02;;;;;;;5.37;3.50;;;;;;;21.78;62.41;151492.16;4958036;28;20296;-63
2023/06/29 06:04:29;;;;;;;6.40;4.00;;;;;;;21.92;62.00;151524.78;4953634;28;20563;-63
2023/06/29 06:06:55;;;;;;;11.03;4.47;;;;;;;21.83;63.05;151503.47;4958801;28;20776;-63
2023/06/29 06:09:22;;;;;;;9.50;3.67;;;;;;;22.01;62.40;151546.13;4956494;28;20593;-63
2023/06/29 06:11:48;;;;;;;5.13;3.20;;;;;;;21.94;61.13;151531.06;4959671;28;20231;-63
2023/06/29 06:14:15;;;;;;;4.83;3.50;;;;;;;21.85;61.24;151508.50;4952100;28;20802;-63
2023/06/29 06:16:43;;;;;;;4.53;3.40;;;;;;;21.93;61.37;151527.28;4955043;28;20602;-63
2023/06/29 06:19:09;;;;;;;6.53;3.50;;;;;;;21.89;63.08;151518.53;4956110;28;20230;-63
2023/06/29 06:21:36;;;;;;;6.57;3.40;;;;;;;22.00;61.57;151544.84;4954762;28;20238;-63
2023/06/29 06:24:03;;;;;;;6.63;3.87;;;;;;;21.99;62.33;151542.31;4954839;28;20245;-63
2023/06/29 06:26:29;;;;;;;6.57;3.27;;;;;;;22.07;59.69;151561.16;4954027;28;20744;-63
2023/06/29 06:29:05;;;;;;;5.37;3.13;;;;;;;22.08;62.39;151563.69;4957106;28;20225;-63
2023/06/29 06:31:36;;;;;;;3.87;3.20;;;;;;;22.15;62.72;151581.22;4952684;28;20815;-63
2023/06/29 06:34:03;;;;;;;4.67;3.40;;;;;;;22.27;61.61;151611.28;4958609;28;20314;-63
2023/06/29 06:36:30;;;;;;;8.00;3.23;;;;;;;22.41;60.44;151643.91;4954539;28;20616;-63
2023/06/29 06:39:00;;;;;;;5.07;3.23;;;;;;;22.52;61.33;151670.31;4959183;28;20231;-63
2023/06/29 06:41:27;;;;;;;5.83;3.73;;;;;;;22.65;61.02;151702.94;4954880;28;20234;-63
2023/06/29 06:44:19;;;;;;;8.07;3.50;;;;;;;22.64;61.14;151699.16;4954969;28;20228;-63
2023/06/29 06:46:46;;;;;;;5.00;3.67;;;;;;;22.67;60.36;151707.94;4956077;28;20236;-63
2023/06/29 06:49:14;;;;;;;6.43;3.70;;;;;;;22.49;59.03;151664.03;4957903;28;20739;-63
2023/06/29 06:51:40;;;;;;;6.60;4.00;;;;;;;22.21;60.00;151595.00;4955847;28;20257;-63
2023/06/29 06:54:07;;;;;;;5.13;3.57;;;;;;;22.14;62.07;151577.44;4954034;28;20228;-63
2023/06/29 06:56:34;;;;;;;8.93;4.73;;;;;;;22.17;62.04;151586.25;4951628;28;20694;-63
2023/06/29 06:59:00;;;;;;;7.83;4.90;;;;;;;21.92;62.93;151524.78;4956060;28;20238;-63
2023/06/29 07:01:27;;;;;;;6.67;3.93;;;;;;;21.90;63.51;151519.75;4952247;28;20305;-63
2023/06/29 07:04:00;;;;;;;8.97;4.53;;;;;;;21.65;63.76;151459.63;4956106;28;20222;-63
2023/06/29 07:06:30;;;;;;;7.70;4.97;;;;;;;21.45;63.89;151411.91;4956301;28;20230;-63
2023/06/29 07:09:00;;;;;;;8.27;4.50;;;;;;;21.40;64.60;151399.38;4957989;28;20225;-63
2023/06/29 07:11:27;;;;;;;9.30;6.40;;;;;;;20.81;66.73;151255.25;4954476;28;20244;-63
2023/06/29 07:13:57;;;;;;;7.87;6.63;;;;;;;20.84;66.78;151264.00;4955096;28;20712;-63
2023/06/29 07:16:25;;;;;;;12.10;6.37;;;;;;;20.77;67.90;151247.72;4952684;28;20704;-63
2023/06/29 07:19:05;;;;;;;7.57;5.73;;;;;;;21.46;65.64;151414.44;4956951;28;20701;-63
2023/06/29 07:21:33;;;;;;;8.23;6.07;;;;;;;21.77;64.22;151489.66;4952567;28;20232;-63
2023/06/29 07:24:01;;;;;;;8.87;6.43;;;;;;;21.99;62.95;151542.31;4955131;28;20329;-63
2023/06/29 07:26:28;;;;;;;13.17;7.30;;;;;;;22.25;61.49;151606.31;4954941;28;20230;-63
2023/06/29 07:29:00;;;;;;;11.13;7.33;;;;;;;21.95;61.73;151533.56;4953964;28;20237;-63
2023/06/29 07:31:29;;;;;;;10.50;6.70;;;;;;;22.40;61.75;151642.66;4951796;28;20604;-63
2023/06/29 07:34:00;;;;;;;9.00;6.60;;;;;;;22.76;60.50;151728.03;4952094;28;20265;-63
2023/06/29 07:36:29;;;;;;;10.93;6.47;;;;;;;23.15;58.43;151823.34;4954332;28;20244;-63
2023/06/29 07:39:02;;;;;;;10.23;6.70;;;;;;;23.44;57.52;151893.66;4952857;28;20321;-63
2023/06/29 07:41:28;;;;;;;8.40;5.53;;;;;;;23.72;56.44;151962.69;4954509;28;20229;-63
2023/06/29 07:44:01;;;;;;;10.80;5.20;;;;;;;24.41;55.70;152128.41;4956651;28;20755;-63
2023/06/29 07:46:28;;;;;;;9.83;5.73;;;;;;;24.29;54.29;152099.53;4953555;28;20659;-63
2023/06/29 07:48:58;;;;;;;10.20;5.10;;;;;;;24.85;52.10;152236.44;4957213;28;20311;-63
2023/06/29 07:51:31;;;;;;;8.65;5.05;;;;;;;24.79;50.57;152220.16;4955673;28;20228;-63
2023/06/29 07:54:03;;;;;;;11.27;5.53;;;;;;;24.48;51.51;152145.97;4956993;28;20232;-63
2023/06/29 07:56:30;;;;;;;10.77;5.07;;;;;;;24.74;50.42;152208.81;4953185;28;20238;-63
2023/06/29 07:59:00;;;;;;;8.83;5.30;;;;;;;24.81;52.08;152226.41;4955583;28;20233;-63
2023/06/29 08:01:27;;;;;;;10.00;4.63;;;;;;;24.68;51.26;152193.69;4950893;28;20232;-63
2023/06/29 08:04:18;;;;;;;6.20;4.17;;;;;;;24.40;51.38;152125.88;4954193;28;20290;-63
2023/06/29 08:06:45;;;;;;;7.57;4.00;;;;;;;24.57;50.18;152167.34;4954904;28;20235;-63
2023/06/29 08:09:13;;;;;;;9.43;3.60;;;;;;;24.69;51.02;152196.22;4956033;28;20229;-64
2023/06/29 08:11:39;;;;;;;9.90;3.80;;;;;;;24.78;48.49;152217.63;4951231;28;20244;-64
2023/06/29 08:14:06;;;;;;;4.40;3.53;;;;;;;24.69;48.09;152197.50;4957015;28;20236;-64
2023/06/29 08:16:33;;;;;;;8.90;4.03;;;;;;;24.55;49.36;152163.56;4952085;28;20242;-63
2023/06/29 08:19:00;;;;;;;6.57;3.57;;;;;;;24.54;48.49;152161.06;4954433;28;20232;-63
2023/06/29 08:21:27;;;;;;;10.23;3.78;;;;;;;24.56;49.65;152166.06;4952091;28;20229;-63
2023/06/29 08:24:19;;;;;;;4.57;3.30;;;;;;;24.74;48.08;152208.81;4952001;28;20240;-63
2023/06/29 08:26:46;;;;;;;7.82;3.83;;;;;;;24.94;47.45;152257.78;4952909;28;20711;-63
2023/06/29 08:29:13;;;;;;;4.30;3.30;;;;;;;24.98;47.66;152267.81;4953196;28;20232;-63
2023/06/29 08:31:39;;;;;;;4.53;2.73;;;;;;;25.24;48.04;152330.63;4947709;28;20284;-64
2023/06/29 08:34:06;;;;;;;5.83;3.13;;;;;;;25.63;47.43;152424.88;4949463;28;20649;-64
2023/06/29 08:36:32;;;;;;;6.23;3.93;;;;;;;25.39;46.75;152365.81;4951724;28;20753;-64
2023/06/29 08:39:00;;;;;;;6.07;3.70;;;;;;;25.49;47.96;152392.22;4956326;28;20233;-64
2023/06/29 08:41:28;;;;;;;6.60;3.50;;;;;;;25.74;48.05;152452.53;4950450;28;20707;-64
2023/06/29 08:44:01;;;;;;;7.40;2.90;;;;;;;25.90;46.00;152491.50;4952826;28;20231;-64
2023/06/29 08:46:29;;;;;;;6.10;3.30;;;;;;;26.03;46.31;152521.63;4950353;28;20238;-64
2023/06/29 08:49:01;;;;;;;4.55;3.08;;;;;;;26.27;45.02;152580.75;4957023;28;20388;-64
2023/06/29 08:51:28;;;;;;;7.93;3.40;;;;;;;26.00;45.39;152515.38;4952547;28;20244;-64
2023/06/29 08:53:59;;;;;;;9.45;3.28;;;;;;;25.90;46.95;152490.22;4956902;28;20234;-64
2023/06/29 08:56:28;;;;;;;5.10;3.00;;;;;;;26.13;47.07;152546.75;4954014;28;20229;-64
2023/06/29 08:59:01;;;;;;;7.00;3.35;;;;;;;26.05;46.18;152526.66;4954416;28;20243;-64
2023/06/29 09:01:29;;;;;;;4.82;3.17;;;;;;;26.11;46.37;152541.72;4952311;28;20240;-64
2023/06/29 09:04:00;;;;;;;4.70;2.60;;;;;;;26.27;45.27;152580.75;4954703;28;20241;-64
2023/06/29 09:06:27;;;;;;;4.55;3.05;;;;;;;26.19;44.82;152560.66;4951824;28;20239;-62
2023/06/29 09:08:57;;;;;;;5.72;2.90;;;;;;;26.00;45.76;152515.38;4955757;28;20234;-63
2023/06/29 09:11:24;;;;;;;9.13;4.00;;;;;;;26.19;44.60;152560.66;4951648;28;20244;-63
2023/06/29 09:13:52;;;;;;;9.00;3.55;;;;;;;25.76;44.35;152457.56;4953910;28;20221;-63
2023/06/29 09:16:19;;;;;;;4.75;2.97;;;;;;;26.12;45.77;152544.25;4950738;28;20239;-63
2023/06/29 09:18:49;;;;;;;6.27;3.53;;;;;;;26.18;45.82;152558.13;4956058;28;20711;-63
2023/06/29 09:21:17;;;;;;;8.70;3.80;;;;;;;26.10;44.65;152539.22;4952432;28;20321;-63
2023/06/29 09:23:44;;;;;;;6.13;2.92;;;;;;;26.31;42.43;152590.81;4962952;28;20287;-63
2023/06/29 09:26:10;;;;;;;4.90;3.60;;;;;;;26.17;43.03;152556.84;4957524;28;20321;-63
2023/06/29 09:28:37;;;;;;;7.30;3.20;;;;;;;25.97;43.42;152506.59;4953119;28;20742;-63
2023/06/29 09:31:09;;;;;;;7.72;3.25;;;;;;;26.14;44.89;152548.09;4953211;28;20242;-63
2023/06/29 09:33:35;;;;;;;3.93;3.03;;;;;;;26.44;44.15;152620.97;4954626;28;20323;-63
2023/06/29 09:36:06;;;;;;;8.40;3.63;;;;;;;26.47;42.41;152628.53;4961198;28;20228;-63
2023/06/29 09:38:34;;;;;;;7.82;3.00;;;;;;;26.27;41.01;152580.75;4957127;28;20535;-63
2023/06/29 09:41:02;;;;;;;5.65;3.30;;;;;;;26.42;41.32;152617.19;4955108;28;20240;-63
2023/06/29 09:43:29;;;;;;;3.80;2.90;;;;;;;25.83;42.74;152472.63;4949844;28;20314;-63
2023/06/29 09:46:05;;;;;;;7.00;3.50;;;;;;;26.08;43.98;152534.19;4952678;28;20227;-63
2023/06/29 09:48:33;;;;;;;9.73;3.58;;;;;;;26.31;42.44;152590.81;4954841;28;20226;-63
2023/06/29 09:50:59;;;;;;;6.93;3.10;;;;;;;26.31;42.47;152589.53;4959060;28;20237;-63
2023/06/29 09:53:30;;;;;;;6.23;3.57;;;;;;;26.28;43.16;152582.00;4952312;28;20295;-63
2023/06/29 09:55:58;;;;;;;5.60;3.27;;;;;;;26.43;42.63;152618.47;4956068;28;20279;-63
2023/06/29 09:58:25;;;;;;;4.13;3.10;;;;;;;26.85;41.69;152720.31;4951131;28;20233;-63
2023/06/29 10:00:52;;;;;;;8.70;3.57;;;;;;;26.85;43.34;152720.31;4951649;28;20227;-63
2023/06/29 10:03:19;;;;;;;7.60;3.13;;;;;;;26.60;42.63;152661.16;4949611;28;20223;-63
2023/06/29 10:05:49;;;;;;;6.13;3.42;;;;;;;26.82;42.19;152714.00;4951813;28;20232;-63
2023/06/29 10:08:18;;;;;;;6.50;3.67;;;;;;;26.92;41.31;152737.91;4952034;28;20237;-63
2023/06/29 10:10:46;;;;;;;4.28;3.13;;;;;;;26.80;41.99;152708.94;4950857;28;20303;-63
2023/06/29 10:13:15;;;;;;;4.70;3.15;;;;;;;26.99;41.96;152754.25;4957958;28;20244;-63
2023/06/29 10:15:41;;;;;;;9.90;4.20;;;;;;;26.45;42.11;152623.50;4956376;28;20252;-63
2023/06/29 10:18:11;;;;;;;7.50;3.07;;;;;;;26.52;42.23;152642.31;4957958;28;20841;-63
2023/06/29 10:20:41;;;;;;;5.78;3.20;;;;;;;26.62;42.35;152666.19;4953706;28;20237;-63
2023/06/29 10:23:10;;;;;;;4.67;3.30;;;;;;;26.84;43.09;152717.81;4958184;28;20608;-63
2023/06/29 10:25:42;;;;;;;4.32;2.72;;;;;;;26.43;43.31;152618.47;4956285;28;20775;-63
2023/06/29 10:28:09;;;;;;;6.27;3.43;;;;;;;26.48;42.95;152631.03;4958065;28;20238;-63
2023/06/29 10:30:45;;;;;;;6.00;3.50;;;;;;;26.92;42.56;152739.16;4953972;28;20624;-63
2023/06/29 10:33:12;;;;;;;9.63;3.70;;;;;;;27.00;42.47;152756.75;4954769;28;20325;-63
2023/06/29 10:35:40;;;;;;;5.75;3.33;;;;;;;27.27;42.53;152823.38;4954327;28;20235;-63
2023/06/29 10:38:12;;;;;;;6.18;3.65;;;;;;;27.45;41.00;152867.41;4954747;28;20242;-63
2023/06/29 10:40:46;;;;;;;6.43;3.22;;;;;;;27.50;41.09;152878.75;4950397;28;20567;-63
2023/06/29 10:43:13;;;;;;;8.68;3.03;;;;;;;28.13;40.71;153033.50;4956777;28;20214;-63
2023/06/29 10:45:40;;;;;;;5.20;3.65;;;;;;;28.12;40.58;153030.97;4935091;28;20236;-63
2023/06/29 10:48:16;;;;;;;5.85;3.15;;;;;;;28.01;41.31;153002.00;4961085;28;20332;-63
2023/06/29 10:50:44;;;;;;;7.13;3.78;;;;;;;28.42;40.09;153103.94;4953598;28;20233;-63
2023/06/29 10:53:14;;;;;;;7.95;4.13;;;;;;;27.16;41.00;152795.72;4957049;28;20226;-63
2023/06/29 10:55:46;;;;;;;5.20;3.20;;;;;;;27.55;40.85;152892.63;4950903;28;20230;-63
2023/06/29 10:58:23;;;;;;;8.35;3.67;;;;;;;28.06;40.43;153015.84;4955047;28;20236;-63
2023/06/29 11:00:52;;;;;;;4.80;3.40;;;;;;;28.60;40.34;153145.44;4952177;28;20264;-63
2023/06/29 11:03:19;;;;;;;5.43;3.20;;;;;;;28.65;38.02;153158.03;4953371;28;20785;-63
2023/06/29 11:05:49;;;;;;;5.35;2.97;;;;;;;28.65;38.84;153159.25;4955857;28;20316;-63
2023/06/29 11:08:18;;;;;;;7.05;3.40;;;;;;;28.68;38.09;153165.56;4951963;28;20244;-63
2023/06/29 11:10:45;;;;;;;6.28;3.10;;;;;;;28.68;38.31;153166.81;4956564;28;20767;-63
2023/06/29 11:13:12;;;;;;;5.45;3.35;;;;;;;29.18;38.03;153287.66;4953635;28;20238;-63
2023/06/29 11:15:39;;;;;;;5.43;3.20;;;;;;;29.11;39.36;153271.34;4950583;28;20226;-63
2023/06/29 11:18:08;;;;;;;6.18;3.10;;;;;;;29.43;37.41;153348.13;4956710;28;20245;-63
2023/06/29 11:20:38;;;;;;;4.75;3.05;;;;;;;29.53;37.54;153372.03;4953500;28;20233;-63
2023/06/29 11:23:04;;;;;;;3.35;2.92;;;;;;;29.14;38.56;153277.59;4953023;28;20627;-63
2023/06/29 11:25:32;;;;;;;5.97;3.00;;;;;;;29.27;36.72;153310.31;4955382;28;20254;-63
2023/06/29 11:27:59;;;;;;;9.10;3.28;;;;;;;28.77;38.09;153187.00;4954776;28;20590;-63
2023/06/29 11:30:26;;;;;;;4.40;3.03;;;;;;;28.97;36.99;153236.09;4948922;28;20271;-63